Time;durP1;ratioP1;P1;durP2;ratioP2;P2;SDS_P1;SDS_P2;PMS_P1;PMS_P2;Temp;Humidity;BMP_temperature;BMP_pressure;BME280_temperature;BME280_humidity;BME280_pressure;Samples;Min_cycle;Max_cycle;Signal;HPM_P1;HPM_P2
2022/11/15 00:00:55;;;;;;;;;;;22.60;55.70;;;;;;6067025;23;19906;-73
2022/11/15 00:03:22;;;;;;;;;;;22.40;57.20;;;;;;6041530;23;19913;-72
2022/11/15 00:05:49;;;;;;;;;;;22.30;55.10;;;;;;6041835;23;19906;-73
2022/11/15 00:08:15;;;;;;;;;;;22.30;56.20;;;;;;6067505;23;19916;-74
2022/11/15 00:10:42;;;;;;;;;;;22.20;56.20;;;;;;6066967;23;19989;-72
2022/11/15 00:13:12;;;;;;;;;;;22.10;54.60;;;;;;6040766;23;19906;-74
2022/11/15 00:15:39;;;;;;;;;;;22.10;57.20;;;;;;6040885;23;19968;-73
2022/11/15 00:18:06;;;;;;;;;;;22.00;58.10;;;;;;6066182;23;19916;-75
2022/11/15 00:20:36;;;;;;;;;;;22.00;59.30;;;;;;6041222;23;19906;-74
2022/11/15 00:23:06;;;;;;;;;;;22.00;55.60;;;;;;6066278;23;19922;-75
2022/11/15 00:25:33;;;;;;;;;;;21.90;56.70;;;;;;6041130;23;19905;-73
2022/11/15 00:27:59;;;;;;;;;;;21.90;55.90;;;;;;6018185;23;19920;-73
2022/11/15 00:30:26;;;;;;;;;;;22.00;58.80;;;;;;6067834;23;19913;-73
2022/11/15 00:32:53;;;;;;;;;;;22.00;56.90;;;;;;6042207;23;19925;-74
2022/11/15 00:35:19;;;;;;;;;;;22.00;58.20;;;;;;6067154;23;19906;-72
2022/11/15 00:37:47;;;;;;;;;;;21.90;56.30;;;;;;6067341;23;19929;-74
2022/11/15 07:01:50;;;;;;;;;;;20.90;71.20;;;;;;6115035;23;19925;-64
2022/11/15 07:04:16;;;;;;;;;;;21.00;71.50;;;;;;6092258;23;20003;-64
2022/11/15 07:06:43;;;;;;;;;;;21.00;72.00;;;;;;6064557;23;19991;-64
2022/11/15 07:09:09;;;;;;;;;;;20.90;71.90;;;;;;6090497;23;19909;-64
2022/11/15 07:11:36;;;;;;;;;;;20.90;71.70;;;;;;6091744;23;19910;-62
2022/11/15 07:14:03;;;;;;;;;;;20.80;72.30;;;;;;6092670;23;19905;-62
2022/11/15 07:16:29;;;;;;;;;;;20.70;72.90;;;;;;6091320;23;19980;-63
2022/11/15 07:18:56;;;;;;;;;;;20.70;73.20;;;;;;6091092;23;20017;-65
2022/11/15 07:21:23;;;;;;;;;;;20.60;73.90;;;;;;6067110;23;19909;-65
2022/11/15 07:23:49;;;;;;;;;;;20.50;74.40;;;;;;6067349;23;19920;-65
2022/11/15 07:26:16;;;;;;;;;;;20.40;73.90;;;;;;6091828;23;20350;-66
2022/11/15 07:28:42;;;;;;;;;;;20.40;74.70;;;;;;6092632;23;20234;-65
2022/11/15 07:31:09;;;;;;;;;;;20.50;75.00;;;;;;6091176;23;19989;-65
2022/11/15 07:33:36;;;;;;;;;;;20.50;75.10;;;;;;6091849;23;19988;-65
2022/11/15 07:36:03;;;;;;;;;;;20.50;75.50;;;;;;6092313;23;20323;-64
2022/11/15 07:38:30;;;;;;;;;;;20.40;77.50;;;;;;6066871;23;20276;-65
2022/11/15 07:40:57;;;;;;;;;;;20.20;78.40;;;;;;6088868;23;19928;-61
2022/11/15 07:43:24;;;;;;;;;;;20.00;79.80;;;;;;6089625;23;19949;-63
2022/11/15 07:45:50;;;;;;;;;;;19.90;80.80;;;;;;6091337;23;19909;-63
2022/11/15 07:48:17;;;;;;;;;;;19.70;84.70;;;;;;6091430;23;19906;-64
2022/11/15 07:50:43;;;;;;;;;;;19.30;86.20;;;;;;6091006;23;19916;-65
2022/11/15 07:53:10;;;;;;;;;;;19.10;89.30;;;;;;6091790;23;19909;-67
2022/11/15 07:55:37;;;;;;;;;;;18.90;91.60;;;;;;6066398;23;19905;-67
2022/11/15 07:58:04;;;;;;;;;;;18.80;92.40;;;;;;6092588;23;20359;-67
2022/11/15 08:00:31;;;;;;;;;;;18.70;93.80;;;;;;6043300;23;19976;-67
2022/11/15 08:03:10;;;;;;;;;;;18.70;94.70;;;;;;6109345;23;19921;-68
2022/11/15 08:05:37;;;;;;;;;;;18.70;94.50;;;;;;6121210;23;19959;-67
2022/11/15 08:08:04;;;;;;;;;;;18.50;94.50;;;;;;6120939;23;19919;-66
2022/11/15 08:10:30;;;;;;;;;;;18.50;95.10;;;;;;6118544;23;19976;-65
2022/11/15 08:13:00;;;;;;;;;;;18.60;95.40;;;;;;6121405;23;19919;-65
2022/11/15 08:15:27;;;;;;;;;;;18.60;95.40;;;;;;6094909;23;19913;-65
2022/11/15 08:18:04;;;;;;;;;;;18.50;95.20;;;;;;6120026;23;20596;-65
2022/11/15 08:20:30;;;;;;;;;;;18.30;95.20;;;;;;6093832;23;19913;-65
2022/11/15 08:22:57;;;;;;;;;;;18.30;95.40;;;;;;6094323;23;19920;-65
2022/11/15 08:25:26;;;;;;;;;;;18.30;95.70;;;;;;6120973;23;19909;-65
2022/11/15 08:27:53;;;;;;;;;;;18.30;95.80;;;;;;6095415;23;19920;-65
2022/11/15 08:30:19;;;;;;;;;;;18.10;95.20;;;;;;6121006;23;19913;-65
2022/11/15 08:57:13;;;;;;;;;;;18.30;95.40;;;;;;6120889;23;20413;-69
2022/11/15 08:59:39;;;;;;;;;;;18.20;94.90;;;;;;6120870;23;19916;-71
2022/11/15 09:02:06;;;;;;;;;;;18.30;94.90;;;;;;6122263;23;19909;-71
2022/11/15 09:04:33;;;;;;;;;;;18.30;94.70;;;;;;6095410;23;19912;-70
2022/11/15 09:06:59;;;;;;;;;;;18.30;94.60;;;;;;6121716;23;19909;-66
2022/11/15 09:09:26;;;;;;;;;;;18.30;94.30;;;;;;6118919;23;19909;-68
2022/11/15 09:11:52;;;;;;;;;;;18.30;94.20;;;;;;6121399;23;19915;-69
2022/11/15 09:14:19;;;;;;;;;;;18.40;94.40;;;;;;6121738;23;19908;-71
2022/11/15 09:16:46;;;;;;;;;;;18.40;94.00;;;;;;6120414;23;19919;-71
2022/11/15 09:19:14;;;;;;;;;;;18.30;93.60;;;;;;6120213;23;19975;-70
2022/11/15 09:21:41;;;;;;;;;;;18.30;92.40;;;;;;6121882;23;20007;-69
2022/11/15 09:24:08;;;;;;;;;;;18.30;92.40;;;;;;6123510;23;20321;-69
2022/11/15 09:26:35;;;;;;;;;;;18.30;92.40;;;;;;6123279;23;19909;-70
2022/11/15 09:29:01;;;;;;;;;;;18.20;91.80;;;;;;6122449;23;19941;-68
2022/11/15 09:31:29;;;;;;;;;;;18.20;91.90;;;;;;6122634;23;19909;-68
2022/11/15 09:33:56;;;;;;;;;;;18.30;91.50;;;;;;6122715;23;19909;-70
2022/11/15 09:36:22;;;;;;;;;;;18.30;92.00;;;;;;6122728;23;19905;-68
2022/11/15 09:38:49;;;;;;;;;;;18.30;91.60;;;;;;6123630;23;19940;-67
2022/11/15 09:41:16;;;;;;;;;;;18.20;91.10;;;;;;6122466;23;19913;-68
2022/11/15 09:43:56;;;;;;;;;;;18.30;91.60;;;;;;6123586;23;19948;-68
2022/11/15 09:46:29;;;;;;;;;;;18.20;91.40;;;;;;6097899;23;20336;-66
2022/11/15 09:48:57;;;;;;;;;;;18.20;90.70;;;;;;6124118;23;20016;-66
2022/11/15 09:51:25;;;;;;;;;;;18.20;91.30;;;;;;6123322;23;19908;-65
2022/11/15 09:54:12;;;;;;;;;;;18.20;91.40;;;;;;6123130;23;19913;-65
2022/11/15 10:19:24;;;;;;;;;;;18.20;90.40;;;;;;6118867;23;20024;-67
2022/11/15 10:21:51;;;;;;;;;;;18.20;90.90;;;;;;6123092;23;20278;-66
2022/11/15 10:24:19;;;;;;;;;;;18.20;90.70;;;;;;6122527;23;20217;-67
2022/11/15 10:26:49;;;;;;;;;;;18.20;90.90;;;;;;6097509;23;20260;-69
2022/11/15 10:29:21;;;;;;;;;;;18.20;91.30;;;;;;6096844;23;19909;-70
2022/11/15 10:31:48;;;;;;;;;;;18.10;91.30;;;;;;6097534;23;19909;-70
2022/11/15 10:34:36;;;;;;;;;;;18.10;91.20;;;;;;6122729;23;19909;-68
2022/11/15 10:37:08;;;;;;;;;;;18.10;91.20;;;;;;6122503;23;19913;-69
2022/11/15 10:39:35;;;;;;;;;;;18.10;90.60;;;;;;6122651;23;19908;-69
2022/11/15 10:42:20;;;;;;;;;;;18.10;90.60;;;;;;6123466;23;19909;-69
2022/11/15 10:44:46;;;;;;;;;;;18.10;90.20;;;;;;6124351;23;19913;-69
2022/11/15 10:47:27;;;;;;;;;;;18.20;90.90;;;;;;6122096;23;19915;-67
2022/11/15 10:50:00;;;;;;;;;;;18.20;90.60;;;;;;6124787;23;19923;-68
2022/11/15 10:52:26;;;;;;;;;;;18.10;90.70;;;;;;6125602;23;19920;-68
2022/11/15 10:55:12;;;;;;;;;;;18.00;90.50;;;;;;6125670;23;19912;-69
2022/11/15 10:57:39;;;;;;;;;;;18.00;90.00;;;;;;6075838;23;19912;-67
2022/11/15 11:00:21;;;;;;;;;;;17.90;90.20;;;;;;6125792;23;19905;-68
2022/11/15 11:02:57;;;;;;;;;;;18.00;90.60;;;;;;6125596;23;19913;-68
2022/11/15 11:05:44;;;;;;;;;;;17.90;90.30;;;;;;6125939;23;19905;-67
2022/11/15 11:08:10;;;;;;;;;;;17.90;90.50;;;;;;6125783;23;19905;-68
2022/11/15 11:10:37;;;;;;;;;;;17.80;90.70;;;;;;6126263;23;19924;-69
2022/11/15 11:13:14;;;;;;;;;;;17.80;90.30;;;;;;6125640;23;20213;-68
2022/11/15 11:15:40;;;;;;;;;;;17.80;90.30;;;;;;6125477;23;19936;-67
2022/11/15 11:18:09;;;;;;;;;;;17.70;89.40;;;;;;6099840;23;20320;-67
2022/11/15 11:20:41;;;;;;;;;;;17.70;89.00;;;;;;6094808;23;19957;-67
2022/11/15 11:23:26;;;;;;;;;;;17.50;87.00;;;;;;6096542;23;19913;-69
2022/11/15 11:26:15;;;;;;;;;;;17.50;87.40;;;;;;6096914;23;20325;-67
2022/11/15 11:29:00;;;;;;;;;;;17.40;86.60;;;;;;6085198;23;20318;-66
2022/11/15 11:31:35;;;;;;;;;;;17.30;85.10;;;;;;6095903;23;19912;-69
2022/11/15 11:34:20;;;;;;;;;;;17.20;84.10;;;;;;6095956;23;19906;-66
2022/11/15 11:36:50;;;;;;;;;;;17.20;83.60;;;;;;6094781;23;20328;-66
2022/11/15 11:39:19;;;;;;;;;;;17.20;82.30;;;;;;6093971;23;19905;-68
2022/11/15 11:41:52;;;;;;;;;;;17.20;80.90;;;;;;6096127;23;19913;-67
2022/11/15 11:44:25;;;;;;;;;;;17.10;81.40;;;;;;6096863;23;20344;-67
2022/11/15 11:47:01;;;;;;;;;;;17.10;79.60;;;;;;6096230;23;19906;-67
2022/11/15 11:49:59;;;;;;;;;;;17.00;76.60;;;;;;6094765;23;19915;-67
2022/11/15 11:52:31;;;;;;;;;;;17.00;79.10;;;;;;6076489;23;19906;-66
2022/11/15 11:55:00;;;;;;;;;;;17.00;79.40;;;;;;6095648;23;20008;-67
2022/11/15 11:57:53;;;;;;;;;;;16.90;77.80;;;;;;6096070;23;19940;-67
2022/11/15 12:00:20;;;;;;;;;;;16.90;78.00;;;;;;6062553;23;19997;-67
2022/11/15 12:03:05;;;;;;;;;;;16.80;76.90;;;;;;6094521;23;19960;-67
2022/11/15 12:05:50;;;;;;;;;;;16.80;76.20;;;;;;6095772;23;19913;-67
2022/11/15 12:08:42;;;;;;;;;;;16.70;75.20;;;;;;6095834;23;20314;-67
2022/11/15 12:11:19;;;;;;;;;;;16.80;75.50;;;;;;6091331;23;19913;-67
2022/11/15 12:13:47;;;;;;;;;;;16.80;74.70;;;;;;6092538;23;19916;-67
2022/11/15 12:16:16;;;;;;;;;;;16.70;73.90;;;;;;6095537;23;19905;-67
2022/11/15 12:18:45;;;;;;;;;;;16.70;71.30;;;;;;6101308;23;19939;-66
2022/11/15 12:21:16;;;;;;;;;;;16.70;71.10;;;;;;6098246;23;20002;-66
2022/11/15 12:23:45;;;;;;;;;;;16.70;71.70;;;;;;6124292;23;19945;-66
2022/11/15 12:26:16;;;;;;;;;;;16.70;71.60;;;;;;6099425;23;19959;-67
2022/11/15 12:28:42;;;;;;;;;;;16.70;68.40;;;;;;6097699;23;19912;-66
2022/11/15 12:31:16;;;;;;;;;;;16.70;69.20;;;;;;6124489;23;19980;-66
2022/11/15 12:33:48;;;;;;;;;;;16.70;67.80;;;;;;6099255;23;19964;-67
2022/11/15 12:36:15;;;;;;;;;;;16.70;67.60;;;;;;6098809;23;19912;-65
2022/11/15 12:38:54;;;;;;;;;;;16.70;69.40;;;;;;6125060;23;19920;-67
2022/11/15 12:41:21;;;;;;;;;;;16.70;67.10;;;;;;6124450;23;19996;-64
2022/11/15 12:43:48;;;;;;;;;;;16.70;65.30;;;;;;6124324;23;19912;-66
2022/11/15 12:46:24;;;;;;;;;;;16.70;66.10;;;;;;6099008;23;19983;-66
2022/11/15 12:48:54;;;;;;;;;;;16.70;67.60;;;;;;6124612;23;19991;-65
2022/11/15 12:51:41;;;;;;;;;;;16.70;63.50;;;;;;6098226;23;20321;-64
2022/11/15 12:54:23;;;;;;;;;;;16.70;64.10;;;;;;6104176;23;19905;-65
2022/11/15 12:57:08;;;;;;;;;;;16.70;65.90;;;;;;6124559;23;19990;-65
2022/11/15 12:59:49;;;;;;;;;;;16.70;61.40;;;;;;6124552;23;19911;-65
2022/11/15 13:02:20;;;;;;;;;;;16.70;63.40;;;;;;6124107;23;20328;-65
2022/11/15 13:04:47;;;;;;;;;;;16.70;62.80;;;;;;6098806;23;19932;-65
2022/11/15 13:07:38;;;;;;;;;;;16.80;63.90;;;;;;6124085;23;19905;-64
2022/11/15 13:10:12;;;;;;;;;;;16.70;63.10;;;;;;6108529;23;19905;-65
2022/11/15 13:12:42;;;;;;;;;;;16.60;64.00;;;;;;6124185;23;19952;-64
2022/11/15 13:15:18;;;;;;;;;;;16.70;62.10;;;;;;6124157;23;19972;-65
2022/11/15 13:17:45;;;;;;;;;;;16.60;61.40;;;;;;6097990;23;19905;-64
2022/11/15 13:20:15;;;;;;;;;;;16.60;63.00;;;;;;6092910;23;20388;-65
2022/11/15 13:22:50;;;;;;;;;;;16.50;59.10;;;;;;6093810;23;19972;-65
2022/11/15 13:25:20;;;;;;;;;;;16.50;60.60;;;;;;6094516;23;20337;-64
2022/11/15 13:27:50;;;;;;;;;;;16.50;60.30;;;;;;6095054;23;19905;-65
2022/11/15 13:30:19;;;;;;;;;;;16.50;60.90;;;;;;6093149;23;19906;-65
2022/11/15 13:32:46;;;;;;;;;;;16.50;60.20;;;;;;6093433;23;19909;-65
2022/11/15 13:35:23;;;;;;;;;;;16.40;61.90;;;;;;6093644;23;19956;-64
2022/11/15 13:37:50;;;;;;;;;;;16.30;57.90;;;;;;6093591;23;19972;-65
2022/11/15 13:40:20;;;;;;;;;;;16.40;61.80;;;;;;6095111;23;20317;-65
2022/11/15 13:42:47;;;;;;;;;;;16.30;61.30;;;;;;6093156;23;19912;-64
2022/11/15 13:45:14;;;;;;;;;;;16.30;58.90;;;;;;6093116;23;19921;-64
2022/11/15 13:47:41;;;;;;;;;;;16.20;58.20;;;;;;6094088;23;20344;-64
2022/11/15 13:50:11;;;;;;;;;;;16.20;58.30;;;;;;6095171;23;19906;-64
2022/11/15 13:52:39;;;;;;;;;;;16.20;58.40;;;;;;6070198;23;19956;-64
2022/11/15 13:55:09;;;;;;;;;;;16.20;58.20;;;;;;6094415;23;20214;-64
2022/11/15 13:57:43;;;;;;;;;;;16.20;60.40;;;;;;6094022;23;19961;-64
2022/11/15 14:00:29;;;;;;;;;;;16.20;59.50;;;;;;6094245;23;19921;-64
2022/11/15 14:02:56;;;;;;;;;;;16.20;58.80;;;;;;6080203;23;19913;-64
2022/11/15 14:05:23;;;;;;;;;;;16.20;61.00;;;;;;6095250;23;19909;-64
2022/11/15 14:08:01;;;;;;;;;;;16.10;60.40;;;;;;6096518;23;19905;-64
2022/11/15 14:10:33;;;;;;;;;;;16.00;59.10;;;;;;6095904;23;19909;-64
2022/11/15 14:13:00;;;;;;;;;;;16.00;58.30;;;;;;6095599;23;20272;-64
2022/11/15 14:15:33;;;;;;;;;;;15.90;58.80;;;;;;6095353;23;19980;-64
2022/11/15 14:17:59;;;;;;;;;;;15.90;59.80;;;;;;6096080;23;19912;-64
2022/11/15 14:20:27;;;;;;;;;;;15.80;58.70;;;;;;6071282;23;19988;-64
2022/11/15 14:22:54;;;;;;;;;;;15.80;57.90;;;;;;6097008;23;19909;-64
2022/11/15 14:25:22;;;;;;;;;;;15.90;57.20;;;;;;6095492;23;19932;-64
2022/11/15 14:28:07;;;;;;;;;;;15.90;58.30;;;;;;6096011;23;19952;-64
2022/11/15 16:59:15;;;;;;;;;;;14.70;52.10;;;;;;6118758;23;19955;-64
2022/11/15 17:01:50;;;;;;;;;;;14.80;51.70;;;;;;6099369;23;20304;-64
2022/11/15 17:04:17;;;;;;;;;;;14.80;53.10;;;;;;6124779;23;19927;-64
2022/11/15 17:06:45;;;;;;;;;;;14.80;53.70;;;;;;6099147;23;19905;-64
2022/11/15 17:09:16;;;;;;;;;;;14.80;54.00;;;;;;6125105;23;19905;-64
2022/11/15 17:11:43;;;;;;;;;;;14.80;52.60;;;;;;6099679;23;19948;-64
2022/11/15 17:14:09;;;;;;;;;;;14.80;54.30;;;;;;6123800;23;20321;-64
2022/11/15 17:16:40;;;;;;;;;;;14.80;54.20;;;;;;6123900;23;20248;-65
2022/11/15 17:19:27;;;;;;;;;;;14.80;55.40;;;;;;6124455;23;19997;-65
2022/11/15 17:21:54;;;;;;;;;;;14.70;52.80;;;;;;6124650;23;20330;-64
2022/11/15 17:24:21;;;;;;;;;;;14.80;54.20;;;;;;6124725;23;19913;-64
2022/11/15 17:26:48;;;;;;;;;;;14.80;53.80;;;;;;6124741;23;20213;-64
2022/11/15 17:29:14;;;;;;;;;;;14.70;54.40;;;;;;6125674;23;19912;-64
2022/11/15 17:31:41;;;;;;;;;;;14.80;52.40;;;;;;6125231;23;19913;-64
2022/11/15 17:34:07;;;;;;;;;;;14.80;52.50;;;;;;6124609;23;19937;-64
2022/11/15 17:36:34;;;;;;;;;;;14.80;53.20;;;;;;6124752;23;20855;-65
2022/11/15 17:39:01;;;;;;;;;;;14.80;54.00;;;;;;6122778;23;19936;-65
2022/11/15 17:41:27;;;;;;;;;;;14.80;55.00;;;;;;6124502;23;20297;-64
2022/11/15 17:43:58;;;;;;;;;;;14.80;53.40;;;;;;6126375;23;19912;-64
2022/11/15 17:46:25;;;;;;;;;;;14.80;54.50;;;;;;6125892;23;19927;-64
2022/11/15 17:48:51;;;;;;;;;;;14.80;53.80;;;;;;6124462;23;19912;-64
2022/11/15 17:51:18;;;;;;;;;;;14.80;53.20;;;;;;6126321;23;19932;-64
2022/11/15 17:53:45;;;;;;;;;;;14.80;53.10;;;;;;6126677;23;20268;-64
2022/11/15 17:56:18;;;;;;;;;;;14.80;52.60;;;;;;6126762;23;20228;-64
2022/11/15 17:58:49;;;;;;;;;;;14.80;53.60;;;;;;6126415;23;19909;-64
2022/11/15 18:01:25;;;;;;;;;;;14.80;53.70;;;;;;6126795;23;19963;-64
2022/11/15 18:03:52;;;;;;;;;;;14.80;54.20;;;;;;6124554;23;19920;-64
2022/11/15 18:06:19;;;;;;;;;;;14.80;53.90;;;;;;6125737;23;19933;-65
2022/11/15 18:08:46;;;;;;;;;;;14.80;53.80;;;;;;6126359;23;19905;-65
2022/11/15 18:11:12;;;;;;;;;;;14.80;52.90;;;;;;6127515;23;19913;-65
2022/11/15 18:13:40;;;;;;;;;;;14.80;53.40;;;;;;6097245;23;19917;-65
2022/11/15 18:16:07;;;;;;;;;;;14.80;54.20;;;;;;6097192;23;19984;-65
2022/11/15 18:18:34;;;;;;;;;;;14.70;53.60;;;;;;6097043;23;20241;-65
2022/11/15 18:21:00;;;;;;;;;;;14.80;54.80;;;;;;6097003;23;19910;-64
2022/11/15 18:23:27;;;;;;;;;;;14.80;55.10;;;;;;6097162;23;19924;-64
2022/11/15 18:25:54;;;;;;;;;;;14.80;53.70;;;;;;6096819;23;20273;-64
2022/11/15 18:28:21;;;;;;;;;;;14.70;54.30;;;;;;6097510;23;19905;-64
2022/11/15 18:30:48;;;;;;;;;;;14.70;54.50;;;;;;6096767;23;19937;-64
2022/11/15 18:33:14;;;;;;;;;;;14.70;54.40;;;;;;6097373;23;19964;-63
2022/11/15 18:35:41;;;;;;;;;;;14.70;54.70;;;;;;6097354;23;19905;-64
2022/11/15 18:38:07;;;;;;;;;;;14.70;54.10;;;;;;6097526;23;19957;-64
2022/11/15 18:40:34;;;;;;;;;;;14.70;54.90;;;;;;6097271;23;19905;-64
2022/11/15 18:43:01;;;;;;;;;;;14.70;52.50;;;;;;6096793;23;19937;-63
2022/11/15 18:45:28;;;;;;;;;;;14.70;53.30;;;;;;6097409;23;20292;-64
2022/11/15 18:47:54;;;;;;;;;;;14.60;53.10;;;;;;6097210;23;20229;-64
2022/11/15 18:50:21;;;;;;;;;;;14.60;52.60;;;;;;6097650;23;19962;-65
2022/11/15 18:52:47;;;;;;;;;;;14.50;51.30;;;;;;6097055;23;19906;-64
2022/11/15 18:55:14;;;;;;;;;;;14.60;53.00;;;;;;6097189;23;19913;-64
2022/11/15 18:57:41;;;;;;;;;;;14.60;53.40;;;;;;6097279;23;19931;-64
2022/11/15 19:00:08;;;;;;;;;;;14.50;52.20;;;;;;6096816;23;20305;-64
2022/11/15 19:02:34;;;;;;;;;;;14.50;52.90;;;;;;6096618;23;19909;-64
2022/11/15 19:05:01;;;;;;;;;;;14.60;51.90;;;;;;6096119;23;19918;-64
2022/11/15 19:07:27;;;;;;;;;;;14.70;52.70;;;;;;6096498;23;19925;-64
2022/11/15 20:23:36;;;;;;;;;;;15.60;50.90;;;;;;6121497;23;20000;-64
2022/11/15 20:26:02;;;;;;;;;;;15.70;51.50;;;;;;6125139;23;19909;-64
2022/11/15 20:28:29;;;;;;;;;;;15.70;49.70;;;;;;6125034;23;20221;-65
2022/11/15 20:30:56;;;;;;;;;;;15.70;49.60;;;;;;6124347;23;20276;-64
2022/11/15 20:33:24;;;;;;;;;;;15.70;48.40;;;;;;6124970;23;19911;-64
2022/11/15 20:35:50;;;;;;;;;;;15.80;48.90;;;;;;6124812;23;19937;-64
2022/11/15 20:38:17;;;;;;;;;;;15.90;48.70;;;;;;6124581;23;20015;-64
2022/11/15 20:40:45;;;;;;;;;;;16.00;46.40;;;;;;6125369;23;19916;-64
2022/11/15 20:43:12;;;;;;;;;;;16.00;48.00;;;;;;6125019;23;19987;-64
2022/11/15 20:45:39;;;;;;;;;;;16.10;49.10;;;;;;6124272;23;19908;-65
2022/11/15 20:48:05;;;;;;;;;;;16.10;48.90;;;;;;6124440;23;19905;-65
2022/11/15 20:50:32;;;;;;;;;;;16.20;47.80;;;;;;6124727;23;19939;-65
2022/11/15 20:52:59;;;;;;;;;;;16.20;45.30;;;;;;6124182;23;19916;-65
2022/11/15 20:55:25;;;;;;;;;;;16.30;44.40;;;;;;6124537;23;20328;-65
2022/11/15 20:57:52;;;;;;;;;;;16.20;44.80;;;;;;6124969;23;19912;-66
2022/11/15 21:00:23;;;;;;;;;;;16.30;44.20;;;;;;6124716;23;20240;-66
2022/11/15 21:02:50;;;;;;;;;;;16.40;44.60;;;;;;6098358;23;19921;-65
2022/11/15 21:05:16;;;;;;;;;;;16.50;44.70;;;;;;6125028;23;20392;-66
2022/11/15 21:07:43;;;;;;;;;;;16.60;43.70;;;;;;6125275;23;19960;-66
2022/11/15 21:12:54;;;;;;;;;;;16.80;45.70;;;;;;6125478;23;20004;-66
2022/11/15 21:15:21;;;;;;;;;;;16.80;43.40;;;;;;6125142;23;20394;-65
2022/11/15 21:17:47;;;;;;;;;;;16.90;45.50;;;;;;6126504;23;19987;-65
2022/11/15 21:20:15;;;;;;;;;;;17.00;43.50;;;;;;6127018;23;20287;-65
2022/11/15 21:22:41;;;;;;;;;;;17.00;44.10;;;;;;6127251;23;19968;-67
2022/11/15 21:25:08;;;;;;;;;;;17.00;43.60;;;;;;6127352;23;19919;-67
2022/11/15 21:27:35;;;;;;;;;;;16.90;44.40;;;;;;6126879;23;20225;-64
2022/11/15 21:30:01;;;;;;;;;;;17.00;44.00;;;;;;6126927;23;19959;-64
2022/11/15 21:32:28;;;;;;;;;;;17.10;45.20;;;;;;6127232;23;19905;-65
2022/11/15 21:34:55;;;;;;;;;;;17.10;43.50;;;;;;6127257;23;19905;-64
2022/11/15 21:37:22;;;;;;;;;;;17.10;43.90;;;;;;6127106;23;19908;-63
2022/11/15 21:39:48;;;;;;;;;;;17.30;45.00;;;;;;6126212;23;19989;-63
2022/11/15 21:42:15;;;;;;;;;;;17.30;42.80;;;;;;6126569;23;19956;-64
2022/11/15 21:44:41;;;;;;;;;;;17.10;42.70;;;;;;6126793;23;19913;-64
2022/11/15 21:47:08;;;;;;;;;;;17.00;43.70;;;;;;6126710;23;19955;-64
2022/11/15 21:49:35;;;;;;;;;;;16.80;44.60;;;;;;6127138;23;19917;-64
2022/11/15 21:52:01;;;;;;;;;;;16.90;45.60;;;;;;6127122;23;19912;-63
2022/11/15 21:54:28;;;;;;;;;;;17.20;45.60;;;;;;6126856;23;19905;-63
2022/11/15 21:56:54;;;;;;;;;;;17.40;45.10;;;;;;6127395;23;19941;-66
2022/11/15 21:59:21;;;;;;;;;;;17.60;43.60;;;;;;6126862;23;20233;-67
2022/11/15 22:04:32;;;;;;;;;;;17.80;44.60;;;;;;6126834;23;19919;-67
2022/11/15 22:06:59;;;;;;;;;;;17.90;43.10;;;;;;6126897;23;19929;-66
2022/11/15 22:09:25;;;;;;;;;;;17.90;43.00;;;;;;6100028;23;19905;-67
2022/11/15 22:11:52;;;;;;;;;;;17.80;44.50;;;;;;6126196;23;20344;-67
2022/11/15 22:14:19;;;;;;;;;;;17.70;45.10;;;;;;6126416;23;20004;-67
2022/11/15 22:16:45;;;;;;;;;;;17.40;41.60;;;;;;6126375;23;19960;-67
2022/11/15 22:19:12;;;;;;;;;;;17.30;42.00;;;;;;6125389;23;19912;-67
2022/11/15 22:21:39;;;;;;;;;;;17.30;41.90;;;;;;6125553;23;19909;-67
2022/11/15 22:24:06;;;;;;;;;;;17.50;43.30;;;;;;6125313;23;20269;-67
2022/11/15 22:26:32;;;;;;;;;;;17.50;42.50;;;;;;6100540;23;19995;-67
2022/11/15 22:28:59;;;;;;;;;;;17.60;42.30;;;;;;6126147;23;20007;-67
2022/11/15 22:31:26;;;;;;;;;;;17.80;43.40;;;;;;6126164;23;19908;-67
2022/11/15 22:33:52;;;;;;;;;;;18.00;42.80;;;;;;6125791;23;19909;-67
2022/11/15 22:36:19;;;;;;;;;;;18.10;41.40;;;;;;6125969;23;19989;-68
2022/11/15 22:38:45;;;;;;;;;;;18.10;41.10;;;;;;6125952;23;19980;-67
2022/11/15 22:41:12;;;;;;;;;;;18.20;41.80;;;;;;6124064;23;19933;-70
2022/11/15 22:43:39;;;;;;;;;;;18.40;40.80;;;;;;6126292;23;19921;-68
2022/11/15 22:46:05;;;;;;;;;;;18.30;39.80;;;;;;6125813;23;19905;-68
2022/11/15 22:48:33;;;;;;;;;;;18.30;41.40;;;;;;6099888;23;19905;-70
2022/11/15 22:51:00;;;;;;;;;;;18.50;41.20;;;;;;6125627;23;19905;-68
2022/11/15 22:53:27;;;;;;;;;;;18.70;40.90;;;;;;6125626;23;20031;-68
2022/11/15 22:55:54;;;;;;;;;;;18.80;41.90;;;;;;6124443;23;20423;-67
2022/11/15 22:58:21;;;;;;;;;;;18.90;38.90;;;;;;6125477;23;19912;-68
2022/11/15 23:00:49;;;;;;;;;;;18.80;39.10;;;;;;6125089;23;19904;-68
2022/11/15 23:03:16;;;;;;;;;;;18.90;39.00;;;;;;6125236;23;19949;-68
2022/11/15 23:06:04;;;;;;;;;;;19.00;38.20;;;;;;6079994;23;19915;-68
2022/11/15 23:08:30;;;;;;;;;;;19.00;39.10;;;;;;6124861;23;20245;-68
2022/11/15 23:13:45;;;;;;;;;;;18.90;40.30;;;;;;6124925;23;19941;-68
2022/11/15 23:18:57;;;;;;;;;;;19.00;38.50;;;;;;6124924;23;20016;-68
2022/11/15 23:24:13;;;;;;;;;;;19.00;36.90;;;;;;6101677;23;19968;-68
2022/11/15 23:26:39;;;;;;;;;;;19.20;37.80;;;;;;6123561;23;19929;-68
2022/11/15 23:29:07;;;;;;;;;;;19.20;37.60;;;;;;6125008;23;19904;-68
2022/11/15 23:34:18;;;;;;;;;;;19.40;39.20;;;;;;6123994;23;19963;-68
2022/11/15 23:36:45;;;;;;;;;;;19.50;38.20;;;;;;6124730;23;19932;-68
2022/11/15 23:39:11;;;;;;;;;;;19.50;38.20;;;;;;6125655;23;20009;-69
2022/11/15 23:41:38;;;;;;;;;;;19.50;38.50;;;;;;6125436;23;19905;-69
2022/11/15 23:44:05;;;;;;;;;;;19.40;37.50;;;;;;6099851;23;19948;-69
2022/11/15 23:46:32;;;;;;;;;;;19.60;38.70;;;;;;6124133;23;19905;-69
2022/11/15 23:48:58;;;;;;;;;;;19.70;38.40;;;;;;6123512;23;20268;-69
2022/11/15 23:51:25;;;;;;;;;;;19.80;36.70;;;;;;6124725;23;20217;-69
2022/11/15 23:53:52;;;;;;;;;;;19.70;36.20;;;;;;6125240;23;20273;-68
2022/11/15 23:56:19;;;;;;;;;;;19.70;35.80;;;;;;6123849;23;19912;-69
2022/11/15 23:58:46;;;;;;;;;;;19.70;34.70;;;;;;6097627;23;19905;-69
